sensor_id;sensor_type;location;lat;lon;timestamp;pressure;altitude;pressure_sealevel;temperature;humidity
73674;BME280;61975;48.660;10.164;2023-05-21T00:00:45;95234.72;;;17.23;76.17
73674;BME280;61975;48.660;10.164;2023-05-21T00:03:11;95232.00;;;17.19;76.55
73674;BME280;61975;48.660;10.164;2023-05-21T00:05:40;95229.69;;;17.14;77.65
73674;BME280;61975;48.660;10.164;2023-05-21T00:08:05;95234.16;;;17.12;78.88
73674;BME280;61975;48.660;10.164;2023-05-21T00:10:31;95229.00;;;17.10;79.10
73674;BME280;61975;48.660;10.164;2023-05-21T00:12:56;95214.84;;;16.98;80.42
73674;BME280;61975;48.660;10.164;2023-05-21T00:15:22;95214.31;;;17.03;79.88
73674;BME280;61975;48.660;10.164;2023-05-21T00:17:47;95215.72;;;16.95;81.46
73674;BME280;61975;48.660;10.164;2023-05-21T00:20:12;95219.66;;;16.97;81.65
73674;BME280;61975;48.660;10.164;2023-05-21T00:22:38;95216.84;;;16.97;80.78
73674;BME280;61975;48.660;10.164;2023-05-21T00:25:04;95218.53;;;16.95;81.55
73674;BME280;61975;48.660;10.164;2023-05-21T00:27:30;95214.59;;;16.92;82.08
73674;BME280;61975;48.660;10.164;2023-05-21T00:29:56;95220.78;;;16.84;83.39
73674;BME280;61975;48.660;10.164;2023-05-21T00:32:21;95217.59;;;16.82;83.66
73674;BME280;61975;48.660;10.164;2023-05-21T00:34:47;95205.31;;;16.76;85.25
73674;BME280;61975;48.660;10.164;2023-05-21T00:37:12;95204.09;;;16.77;85.07
73674;BME280;61975;48.660;10.164;2023-05-21T00:39:39;95198.50;;;16.77;85.00
73674;BME280;61975;48.660;10.164;2023-05-21T00:42:05;95200.94;;;16.75;85.34
73674;BME280;61975;48.660;10.164;2023-05-21T00:44:31;95196.56;;;16.74;85.29
73674;BME280;61975;48.660;10.164;2023-05-21T00:47:03;95197.38;;;16.74;85.26
73674;BME280;61975;48.660;10.164;2023-05-21T00:49:29;95191.44;;;16.69;86.70
73674;BME280;61975;48.660;10.164;2023-05-21T00:51:55;95187.06;;;16.68;86.75
73674;BME280;61975;48.660;10.164;2023-05-21T00:54:22;95194.72;;;16.67;87.43
73674;BME280;61975;48.660;10.164;2023-05-21T00:56:49;95192.34;;;16.66;87.55
73674;BME280;61975;48.660;10.164;2023-05-21T00:59:15;95187.16;;;16.64;87.30
73674;BME280;61975;48.660;10.164;2023-05-21T01:01:44;95185.22;;;16.61;87.63
73674;BME280;61975;48.660;10.164;2023-05-21T01:04:10;95191.69;;;16.58;88.01
73674;BME280;61975;48.660;10.164;2023-05-21T01:06:36;95194.13;;;16.56;87.76
73674;BME280;61975;48.660;10.164;2023-05-21T01:09:02;95190.19;;;16.54;88.03
73674;BME280;61975;48.660;10.164;2023-05-21T01:11:44;95185.44;;;16.51;88.26
73674;BME280;61975;48.660;10.164;2023-05-21T01:14:11;95193.06;;;16.50;88.59
73674;BME280;61975;48.660;10.164;2023-05-21T01:16:38;95185.88;;;16.49;89.10
73674;BME280;61975;48.660;10.164;2023-05-21T01:19:05;95187.09;;;16.48;89.64
73674;BME280;61975;48.660;10.164;2023-05-21T01:21:35;95183.94;;;16.46;89.41
73674;BME280;61975;48.660;10.164;2023-05-21T01:24:02;95184.81;;;16.43;89.91
73674;BME280;61975;48.660;10.164;2023-05-21T01:26:32;95182.41;;;16.41;90.08
73674;BME280;61975;48.660;10.164;2023-05-21T01:29:03;95182.47;;;16.38;90.11
73674;BME280;61975;48.660;10.164;2023-05-21T01:31:41;95184.13;;;16.35;90.62
73674;BME280;61975;48.660;10.164;2023-05-21T01:34:10;95181.75;;;16.34;90.93
73674;BME280;61975;48.660;10.164;2023-05-21T01:36:43;95183.84;;;16.30;91.01
73674;BME280;61975;48.660;10.164;2023-05-21T01:39:25;95182.34;;;16.25;91.45
73674;BME280;61975;48.660;10.164;2023-05-21T01:41:53;95183.56;;;16.24;91.39
73674;BME280;61975;48.660;10.164;2023-05-21T01:44:21;95174.78;;;16.22;91.24
73674;BME280;61975;48.660;10.164;2023-05-21T01:46:47;95185.66;;;16.20;91.42
73674;BME280;61975;48.660;10.164;2023-05-21T01:49:14;95181.25;;;16.19;91.86
73674;BME280;61975;48.660;10.164;2023-05-21T01:51:42;95182.47;;;16.18;92.07
73674;BME280;61975;48.660;10.164;2023-05-21T01:54:07;95184.56;;;16.14;91.79
73674;BME280;61975;48.660;10.164;2023-05-21T01:56:33;95171.56;;;16.04;94.30
73674;BME280;61975;48.660;10.164;2023-05-21T01:59:01;95179.97;;;16.04;95.38
73674;BME280;61975;48.660;10.164;2023-05-21T02:01:26;95184.41;;;16.02;95.38
73674;BME280;61975;48.660;10.164;2023-05-21T02:03:54;95176.50;;;15.97;96.10
73674;BME280;61975;48.660;10.164;2023-05-21T02:06:20;95177.78;;;15.92;96.16
73674;BME280;61975;48.660;10.164;2023-05-21T02:08:46;95173.06;;;15.89;97.15
73674;BME280;61975;48.660;10.164;2023-05-21T02:11:12;95174.25;;;15.88;97.26
73674;BME280;61975;48.660;10.164;2023-05-21T02:13:38;95171.53;;;15.85;97.23
73674;BME280;61975;48.660;10.164;2023-05-21T02:16:07;95167.59;;;15.82;96.55
73674;BME280;61975;48.660;10.164;2023-05-21T02:18:37;95165.28;;;15.77;97.49
73674;BME280;61975;48.660;10.164;2023-05-21T02:21:02;95164.56;;;15.73;97.63
73674;BME280;61975;48.660;10.164;2023-05-21T02:23:28;95165.78;;;15.72;97.54
73674;BME280;61975;48.660;10.164;2023-05-21T02:25:53;95171.00;;;15.70;98.39
73674;BME280;61975;48.660;10.164;2023-05-21T02:28:18;95172.53;;;15.52;100.00
73674;BME280;61975;48.660;10.164;2023-05-21T02:30:45;95163.72;;;15.53;100.00
73674;BME280;61975;48.660;10.164;2023-05-21T02:33:11;95171.25;;;15.56;99.60
73674;BME280;61975;48.660;10.164;2023-05-21T02:35:38;95176.44;;;15.58;98.99
73674;BME280;61975;48.660;10.164;2023-05-21T02:38:04;95163.66;;;15.57;99.12
73674;BME280;61975;48.660;10.164;2023-05-21T02:40:29;95164.84;;;15.56;98.83
73674;BME280;61975;48.660;10.164;2023-05-21T02:42:54;95158.13;;;15.53;98.96
73674;BME280;61975;48.660;10.164;2023-05-21T02:45:20;95160.19;;;15.49;99.46
73674;BME280;61975;48.660;10.164;2023-05-21T02:47:45;95155.44;;;15.46;99.28
73674;BME280;61975;48.660;10.164;2023-05-21T02:50:12;95157.91;;;15.44;99.66
73674;BME280;61975;48.660;10.164;2023-05-21T02:52:38;95151.19;;;15.38;100.00
73674;BME280;61975;48.660;10.164;2023-05-21T02:55:03;95156.41;;;15.36;100.00
73674;BME280;61975;48.660;10.164;2023-05-21T02:57:29;95158.84;;;15.34;100.00
73674;BME280;61975;48.660;10.164;2023-05-21T02:59:54;95148.84;;;15.33;100.00
73674;BME280;61975;48.660;10.164;2023-05-21T03:02:20;95152.94;;;15.29;100.00
73674;BME280;61975;48.660;10.164;2023-05-21T03:04:45;95152.56;;;15.27;100.00
73674;BME280;61975;48.660;10.164;2023-05-21T03:07:13;95157.00;;;15.24;100.00
73674;BME280;61975;48.660;10.164;2023-05-21T03:09:39;95147.03;;;15.23;100.00
73674;BME280;61975;48.660;10.164;2023-05-21T03:12:06;95147.09;;;15.20;100.00
73674;BME280;61975;48.660;10.164;2023-05-21T03:14:32;95152.69;;;15.20;100.00
73674;BME280;61975;48.660;10.164;2023-05-21T03:16:57;95151.16;;;15.15;100.00
73674;BME280;61975;48.660;10.164;2023-05-21T03:19:23;95154.38;;;15.14;100.00
73674;BME280;61975;48.660;10.164;2023-05-21T03:21:49;95152.00;;;15.12;100.00
73674;BME280;61975;48.660;10.164;2023-05-21T03:24:14;95150.41;;;15.11;100.00
73674;BME280;61975;48.660;10.164;2023-05-21T03:26:40;95151.25;;;15.08;100.00
73674;BME280;61975;48.660;10.164;2023-05-21T03:29:05;95146.22;;;15.00;100.00
73674;BME280;61975;48.660;10.164;2023-05-21T03:31:31;95149.81;;;15.00;100.00
73674;BME280;61975;48.660;10.164;2023-05-21T03:33:56;95157.81;;;14.98;100.00
73674;BME280;61975;48.660;10.164;2023-05-21T03:36:21;95156.25;;;14.97;100.00
73674;BME280;61975;48.660;10.164;2023-05-21T03:38:47;95153.47;;;14.94;100.00
73674;BME280;61975;48.660;10.164;2023-05-21T03:41:12;95158.31;;;14.93;100.00
73674;BME280;61975;48.660;10.164;2023-05-21T03:43:38;95153.56;;;14.90;100.00
73674;BME280;61975;48.660;10.164;2023-05-21T03:46:03;95153.16;;;14.88;100.00
73674;BME280;61975;48.660;10.164;2023-05-21T03:48:29;95159.97;;;14.87;100.00
73674;BME280;61975;48.660;10.164;2023-05-21T03:50:54;95161.19;;;14.86;100.00
73674;BME280;61975;48.660;10.164;2023-05-21T03:53:21;95158.84;;;14.85;100.00
73674;BME280;61975;48.660;10.164;2023-05-21T03:55:46;95159.25;;;14.83;100.00
73674;BME280;61975;48.660;10.164;2023-05-21T03:58:20;95163.28;;;14.82;100.00
73674;BME280;61975;48.660;10.164;2023-05-21T04:00:45;95161.66;;;14.81;100.00
73674;BME280;61975;48.660;10.164;2023-05-21T04:03:10;95162.88;;;14.80;100.00
73674;BME280;61975;48.660;10.164;2023-05-21T04:05:36;95158.09;;;14.81;100.00
73674;BME280;61975;48.660;10.164;2023-05-21T04:08:01;95154.50;;;14.80;100.00
73674;BME280;61975;48.660;10.164;2023-05-21T04:10:27;95160.91;;;14.81;100.00
73674;BME280;61975;48.660;10.164;2023-05-21T04:12:52;95152.50;;;14.81;100.00
73674;BME280;61975;48.660;10.164;2023-05-21T04:15:18;95162.88;;;14.80;100.00
73674;BME280;61975;48.660;10.164;2023-05-21T04:17:44;95163.28;;;14.82;100.00
73674;BME280;61975;48.660;10.164;2023-05-21T04:20:12;95158.44;;;14.83;100.00
73674;BME280;61975;48.660;10.164;2023-05-21T04:22:41;95159.25;;;14.83;100.00
73674;BME280;61975;48.660;10.164;2023-05-21T04:25:07;95162.03;;;14.83;100.00
73674;BME280;61975;48.660;10.164;2023-05-21T04:27:33;95170.81;;;14.85;100.00
73674;BME280;61975;48.660;10.164;2023-05-21T04:29:59;95172.81;;;14.85;100.00
73674;BME280;61975;48.660;10.164;2023-05-21T04:32:24;95183.19;;;14.84;100.00
73674;BME280;61975;48.660;10.164;2023-05-21T04:34:50;95189.16;;;14.86;100.00
73674;BME280;61975;48.660;10.164;2023-05-21T04:37:15;95184.28;;;14.90;100.00
73674;BME280;61975;48.660;10.164;2023-05-21T04:39:43;95191.03;;;14.93;100.00
73674;BME280;61975;48.660;10.164;2023-05-21T04:42:09;95191.00;;;14.96;100.00
73674;BME280;61975;48.660;10.164;2023-05-21T04:44:37;95194.16;;;14.98;100.00
73674;BME280;61975;48.660;10.164;2023-05-21T04:47:04;95195.34;;;15.01;100.00
73674;BME280;61975;48.660;10.164;2023-05-21T04:49:30;95190.50;;;15.01;100.00
73674;BME280;61975;48.660;10.164;2023-05-21T04:51:55;95191.63;;;15.07;100.00
73674;BME280;61975;48.660;10.164;2023-05-21T04:54:21;95200.44;;;15.06;100.00
73674;BME280;61975;48.660;10.164;2023-05-21T04:56:46;95199.94;;;15.11;100.00
73674;BME280;61975;48.660;10.164;2023-05-21T04:59:12;95196.69;;;15.16;99.40
73674;BME280;61975;48.660;10.164;2023-05-21T05:01:39;95192.63;;;15.20;98.94
73674;BME280;61975;48.660;10.164;2023-05-21T05:04:05;95205.38;;;15.21;98.20
73674;BME280;61975;48.660;10.164;2023-05-21T05:06:30;95191.72;;;15.27;97.62
73674;BME280;61975;48.660;10.164;2023-05-21T05:08:56;95194.81;;;15.32;97.38
73674;BME280;61975;48.660;10.164;2023-05-21T05:11:22;95197.19;;;15.37;97.10
73674;BME280;61975;48.660;10.164;2023-05-21T05:13:47;95195.09;;;15.41;97.35
73674;BME280;61975;48.660;10.164;2023-05-21T05:16:13;95190.25;;;15.45;96.49
73674;BME280;61975;48.660;10.164;2023-05-21T05:18:41;95192.13;;;15.52;96.48
73674;BME280;61975;48.660;10.164;2023-05-21T05:21:06;95190.13;;;15.52;96.24
73674;BME280;61975;48.660;10.164;2023-05-21T05:23:32;95192.78;;;15.59;96.14
73674;BME280;61975;48.660;10.164;2023-05-21T05:25:57;95196.06;;;15.54;95.38
73674;BME280;61975;48.660;10.164;2023-05-21T05:28:23;95191.25;;;15.55;95.90
73674;BME280;61975;48.660;10.164;2023-05-21T05:30:48;95195.16;;;15.61;95.55
73674;BME280;61975;48.660;10.164;2023-05-21T05:33:13;95192.66;;;15.66;94.93
73674;BME280;61975;48.660;10.164;2023-05-21T05:35:39;95201.34;;;15.72;94.82
73674;BME280;61975;48.660;10.164;2023-05-21T05:38:04;95192.53;;;15.73;93.72
73674;BME280;61975;48.660;10.164;2023-05-21T05:40:30;95198.97;;;15.70;93.93
73674;BME280;61975;48.660;10.164;2023-05-21T05:42:55;95198.97;;;15.70;92.80
73674;BME280;61975;48.660;10.164;2023-05-21T05:45:21;95196.84;;;15.78;91.76
73674;BME280;61975;48.660;10.164;2023-05-21T05:47:46;95199.53;;;15.85;91.74
73674;BME280;61975;48.660;10.164;2023-05-21T05:50:11;95188.50;;;15.97;90.71
73674;BME280;61975;48.660;10.164;2023-05-21T05:52:37;95191.16;;;16.04;90.08
73674;BME280;61975;48.660;10.164;2023-05-21T05:55:02;95191.06;;;16.08;90.26
73674;BME280;61975;48.660;10.164;2023-05-21T05:57:28;95193.69;;;16.18;87.32
73674;BME280;61975;48.660;10.164;2023-05-21T05:59:53;95184.34;;;16.25;86.80
73674;BME280;61975;48.660;10.164;2023-05-21T06:02:19;95193.78;;;16.34;83.72
73674;BME280;61975;48.660;10.164;2023-05-21T06:04:45;95199.66;;;16.20;86.09
73674;BME280;61975;48.660;10.164;2023-05-21T06:07:10;95203.38;;;16.33;85.00
73674;BME280;61975;48.660;10.164;2023-05-21T06:09:35;95196.56;;;16.34;82.49
73674;BME280;61975;48.660;10.164;2023-05-21T06:12:04;95196.84;;;16.40;78.80
73674;BME280;61975;48.660;10.164;2023-05-21T06:14:29;95205.75;;;16.55;78.41
73674;BME280;61975;48.660;10.164;2023-05-21T06:16:55;95199.66;;;16.60;77.98
73674;BME280;61975;48.660;10.164;2023-05-21T06:19:20;95197.84;;;16.69;77.66
73674;BME280;61975;48.660;10.164;2023-05-21T06:21:45;95205.63;;;16.81;75.91
73674;BME280;61975;48.660;10.164;2023-05-21T06:24:11;95201.44;;;16.89;75.51
73674;BME280;61975;48.660;10.164;2023-05-21T06:26:36;95196.47;;;16.97;74.82
73674;BME280;61975;48.660;10.164;2023-05-21T06:29:02;95201.81;;;17.07;74.42
73674;BME280;61975;48.660;10.164;2023-05-21T06:31:28;95204.88;;;17.13;74.12
73674;BME280;61975;48.660;10.164;2023-05-21T06:33:53;95203.84;;;17.23;74.54
73674;BME280;61975;48.660;10.164;2023-05-21T06:36:19;95210.88;;;17.31;73.77
73674;BME280;61975;48.660;10.164;2023-05-21T06:38:44;95207.00;;;17.41;72.27
73674;BME280;61975;48.660;10.164;2023-05-21T06:41:10;95208.97;;;17.44;71.54
73674;BME280;61975;48.660;10.164;2023-05-21T06:43:36;95201.63;;;17.50;70.71
73674;BME280;61975;48.660;10.164;2023-05-21T06:46:01;95198.66;;;17.57;70.39
73674;BME280;61975;48.660;10.164;2023-05-21T06:48:27;95200.03;;;17.65;69.68
73674;BME280;61975;48.660;10.164;2023-05-21T06:50:52;95197.22;;;17.65;68.61
73674;BME280;61975;48.660;10.164;2023-05-21T06:53:18;95203.47;;;17.72;68.66
73674;BME280;61975;48.660;10.164;2023-05-21T06:55:43;95199.66;;;17.79;68.48
73674;BME280;61975;48.660;10.164;2023-05-21T06:58:11;95202.16;;;17.77;67.25
73674;BME280;61975;48.660;10.164;2023-05-21T07:00:37;95202.72;;;17.84;67.46
73674;BME280;61975;48.660;10.164;2023-05-21T07:03:02;95213.44;;;17.89;66.47
73674;BME280;61975;48.660;10.164;2023-05-21T07:05:28;95204.47;;;17.94;66.51
73674;BME280;61975;48.660;10.164;2023-05-21T07:07:53;95212.81;;;17.98;66.42
73674;BME280;61975;48.660;10.164;2023-05-21T07:10:19;95214.56;;;18.08;66.93
73674;BME280;61975;48.660;10.164;2023-05-21T07:12:44;95222.75;;;18.02;64.37
73674;BME280;61975;48.660;10.164;2023-05-21T07:15:10;95218.06;;;18.12;64.45
73674;BME280;61975;48.660;10.164;2023-05-21T07:17:35;95215.06;;;18.19;64.19
73674;BME280;61975;48.660;10.164;2023-05-21T07:20:01;95203.63;;;18.26;65.12
73674;BME280;61975;48.660;10.164;2023-05-21T07:22:28;95213.81;;;18.36;65.05
73674;BME280;61975;48.660;10.164;2023-05-21T07:24:53;95213.28;;;18.41;63.99
73674;BME280;61975;48.660;10.164;2023-05-21T07:27:19;95216.75;;;18.45;62.29
73674;BME280;61975;48.660;10.164;2023-05-21T07:29:44;95211.31;;;18.54;62.19
73674;BME280;61975;48.660;10.164;2023-05-21T07:32:10;95212.44;;;18.56;61.56
73674;BME280;61975;48.660;10.164;2023-05-21T07:34:35;95204.91;;;18.66;61.52
73674;BME280;61975;48.660;10.164;2023-05-21T07:37:01;95208.69;;;18.75;61.69
73674;BME280;61975;48.660;10.164;2023-05-21T07:39:26;95213.28;;;18.82;60.38
73674;BME280;61975;48.660;10.164;2023-05-21T07:41:51;95210.72;;;18.87;60.34
73674;BME280;61975;48.660;10.164;2023-05-21T07:44:17;95210.94;;;18.93;59.93
73674;BME280;61975;48.660;10.164;2023-05-21T07:46:42;95212.28;;;19.01;59.86
73674;BME280;61975;48.660;10.164;2023-05-21T07:49:07;95208.50;;;19.08;59.66
73674;BME280;61975;48.660;10.164;2023-05-21T07:51:40;95208.28;;;19.15;59.10
73674;BME280;61975;48.660;10.164;2023-05-21T07:54:06;95204.34;;;19.25;59.61
73674;BME280;61975;48.660;10.164;2023-05-21T07:56:31;95208.31;;;19.27;58.86
73674;BME280;61975;48.660;10.164;2023-05-21T07:58:56;95212.16;;;19.33;58.08
73674;BME280;61975;48.660;10.164;2023-05-21T08:01:22;95206.06;;;19.35;57.42
73674;BME280;61975;48.660;10.164;2023-05-21T08:03:48;95213.41;;;19.45;58.30
73674;BME280;61975;48.660;10.164;2023-05-21T08:06:13;95213.38;;;19.57;57.60
73674;BME280;61975;48.660;10.164;2023-05-21T08:08:38;95214.38;;;19.63;58.67
73674;BME280;61975;48.660;10.164;2023-05-21T08:11:04;95213.94;;;19.65;58.24
73674;BME280;61975;48.660;10.164;2023-05-21T08:13:29;95212.91;;;19.71;58.00
73674;BME280;61975;48.660;10.164;2023-05-21T08:15:55;95218.19;;;19.82;58.01
73674;BME280;61975;48.660;10.164;2023-05-21T08:18:20;95215.94;;;19.89;57.87
73674;BME280;61975;48.660;10.164;2023-05-21T08:20:47;95212.63;;;20.03;57.20
73674;BME280;61975;48.660;10.164;2023-05-21T08:23:14;95212.38;;;20.10;57.25
73674;BME280;61975;48.660;10.164;2023-05-21T08:25:40;95209.25;;;20.21;57.28
73674;BME280;61975;48.660;10.164;2023-05-21T08:28:05;95220.59;;;20.30;57.16
73674;BME280;61975;48.660;10.164;2023-05-21T08:30:31;95207.03;;;20.37;57.97
73674;BME280;61975;48.660;10.164;2023-05-21T08:32:56;95217.72;;;20.42;57.24
73674;BME280;61975;48.660;10.164;2023-05-21T08:35:22;95217.91;;;20.48;57.25
73674;BME280;61975;48.660;10.164;2023-05-21T08:37:48;95221.53;;;20.48;56.48
73674;BME280;61975;48.660;10.164;2023-05-21T08:40:13;95217.19;;;20.35;55.29
73674;BME280;61975;48.660;10.164;2023-05-21T08:42:44;95220.59;;;20.30;55.72
73674;BME280;61975;48.660;10.164;2023-05-21T08:45:14;95225.53;;;20.38;56.65
73674;BME280;61975;48.660;10.164;2023-05-21T08:47:42;95218.63;;;20.39;56.35
73674;BME280;61975;48.660;10.164;2023-05-21T08:50:12;95216.75;;;20.36;55.75
73674;BME280;61975;48.660;10.164;2023-05-21T08:52:38;95225.72;;;20.44;56.00
73674;BME280;61975;48.660;10.164;2023-05-21T08:55:04;95224.34;;;20.48;55.66
73674;BME280;61975;48.660;10.164;2023-05-21T08:57:30;95229.53;;;20.50;55.80
73674;BME280;61975;48.660;10.164;2023-05-21T08:59:59;95240.56;;;20.57;55.17
73674;BME280;61975;48.660;10.164;2023-05-21T09:02:26;95229.81;;;20.64;55.60
73674;BME280;61975;48.660;10.164;2023-05-21T09:04:52;95237.34;;;20.67;55.96
73674;BME280;61975;48.660;10.164;2023-05-21T09:07:23;95234.75;;;20.73;54.86
73674;BME280;61975;48.660;10.164;2023-05-21T09:09:57;95233.34;;;20.77;54.27
73674;BME280;61975;48.660;10.164;2023-05-21T09:12:23;95239.53;;;20.85;53.58
73674;BME280;61975;48.660;10.164;2023-05-21T09:14:49;95237.59;;;20.94;53.05
73674;BME280;61975;48.660;10.164;2023-05-21T09:17:15;95243.59;;;21.05;53.66
73674;BME280;61975;48.660;10.164;2023-05-21T09:20:03;95232.84;;;21.13;54.13
73674;BME280;61975;48.660;10.164;2023-05-21T09:22:32;95228.38;;;21.24;54.54
73674;BME280;61975;48.660;10.164;2023-05-21T09:24:57;95234.66;;;21.28;53.97
73674;BME280;61975;48.660;10.164;2023-05-21T09:27:23;95237.38;;;21.32;52.82
73674;BME280;61975;48.660;10.164;2023-05-21T09:29:48;95239.00;;;21.42;53.68
73674;BME280;61975;48.660;10.164;2023-05-21T09:32:16;95241.31;;;21.43;52.93
73674;BME280;61975;48.660;10.164;2023-05-21T09:34:41;95236.19;;;21.51;53.17
73674;BME280;61975;48.660;10.164;2023-05-21T09:37:07;95241.53;;;21.49;52.57
73674;BME280;61975;48.660;10.164;2023-05-21T09:39:34;95231.19;;;21.55;52.80
73674;BME280;61975;48.660;10.164;2023-05-21T09:41:59;95229.47;;;21.57;53.05
73674;BME280;61975;48.660;10.164;2023-05-21T09:44:25;95233.44;;;21.69;52.42
73674;BME280;61975;48.660;10.164;2023-05-21T09:46:56;95231.94;;;21.77;52.21
73674;BME280;61975;48.660;10.164;2023-05-21T09:49:22;95239.16;;;21.78;52.40
73674;BME280;61975;48.660;10.164;2023-05-21T09:51:55;95240.13;;;21.84;52.08
73674;BME280;61975;48.660;10.164;2023-05-21T09:54:22;95237.03;;;21.91;51.86
73674;BME280;61975;48.660;10.164;2023-05-21T09:56:50;95234.19;;;22.00;52.05
73674;BME280;61975;48.660;10.164;2023-05-21T09:59:15;95239.84;;;22.00;51.17
73674;BME280;61975;48.660;10.164;2023-05-21T10:01:41;95239.56;;;21.98;51.05
73674;BME280;61975;48.660;10.164;2023-05-21T10:04:08;95237.47;;;21.90;51.45
73674;BME280;61975;48.660;10.164;2023-05-21T10:06:40;95231.50;;;21.88;51.35
73674;BME280;61975;48.660;10.164;2023-05-21T10:09:09;95232.59;;;21.81;51.37
73674;BME280;61975;48.660;10.164;2023-05-21T10:11:36;95233.72;;;21.93;51.99
73674;BME280;61975;48.660;10.164;2023-05-21T10:14:17;95236.72;;;21.98;51.13
73674;BME280;61975;48.660;10.164;2023-05-21T10:16:46;95234.19;;;22.00;52.20
73674;BME280;61975;48.660;10.164;2023-05-21T10:19:12;95234.41;;;22.15;51.78
73674;BME280;61975;48.660;10.164;2023-05-21T10:21:39;95228.41;;;22.13;52.57
73674;BME280;61975;48.660;10.164;2023-05-21T10:24:06;95232.38;;;22.24;52.62
73674;BME280;61975;48.660;10.164;2023-05-21T10:26:32;95241.31;;;22.23;52.59
73674;BME280;61975;48.660;10.164;2023-05-21T10:28:59;95238.84;;;22.43;53.19
73674;BME280;61975;48.660;10.164;2023-05-21T10:31:25;95237.31;;;22.51;52.60
73674;BME280;61975;48.660;10.164;2023-05-21T10:33:52;95227.88;;;22.54;52.11
73674;BME280;61975;48.660;10.164;2023-05-21T10:36:19;95234.97;;;22.58;52.63
73674;BME280;61975;48.660;10.164;2023-05-21T10:38:45;95229.63;;;22.69;52.51
73674;BME280;61975;48.660;10.164;2023-05-21T10:41:13;95217.50;;;22.87;52.24
73674;BME280;61975;48.660;10.164;2023-05-21T10:43:58;95217.19;;;22.94;51.01
73674;BME280;61975;48.660;10.164;2023-05-21T11:00:44;95215.34;;;23.92;48.59
73674;BME280;61975;48.660;10.164;2023-05-21T11:03:11;95215.81;;;23.90;48.04
73674;BME280;61975;48.660;10.164;2023-05-21T11:05:40;95203.38;;;23.97;48.22
73674;BME280;61975;48.660;10.164;2023-05-21T11:08:28;95202.84;;;24.08;47.43
73674;BME280;61975;48.660;10.164;2023-05-21T11:11:00;95204.69;;;24.20;47.11
73674;BME280;61975;48.660;10.164;2023-05-21T11:13:28;95201.41;;;24.36;45.72
73674;BME280;61975;48.660;10.164;2023-05-21T11:21:12;95195.78;;;24.50;45.89
73674;BME280;61975;48.660;10.164;2023-05-21T11:23:50;95206.44;;;24.64;46.12
73674;BME280;61975;48.660;10.164;2023-05-21T11:28:41;95206.28;;;24.82;45.53
73674;BME280;61975;48.660;10.164;2023-05-21T11:31:26;95198.56;;;24.97;44.03
73674;BME280;61975;48.660;10.164;2023-05-21T11:36:46;95203.94;;;24.95;44.25
73674;BME280;61975;48.660;10.164;2023-05-21T11:39:15;95203.34;;;24.91;43.21
73674;BME280;61975;48.660;10.164;2023-05-21T11:41:58;95193.56;;;24.92;43.00
73674;BME280;61975;48.660;10.164;2023-05-21T11:47:08;95200.72;;;25.02;42.91
73674;BME280;61975;48.660;10.164;2023-05-21T11:49:35;95198.78;;;25.08;41.96
73674;BME280;61975;48.660;10.164;2023-05-21T11:52:02;95201.91;;;25.10;42.92
73674;BME280;61975;48.660;10.164;2023-05-21T11:54:29;95189.88;;;25.15;43.92
73674;BME280;61975;48.660;10.164;2023-05-21T11:56:58;95191.63;;;25.13;43.49
73674;BME280;61975;48.660;10.164;2023-05-21T11:59:25;95193.69;;;25.12;43.07
73674;BME280;61975;48.660;10.164;2023-05-21T12:01:50;95194.69;;;25.24;43.41
73674;BME280;61975;48.660;10.164;2023-05-21T12:04:15;95199.66;;;25.29;42.48
73674;BME280;61975;48.660;10.164;2023-05-21T12:06:44;95205.00;;;25.36;42.92
73674;BME280;61975;48.660;10.164;2023-05-21T12:09:10;95206.94;;;25.44;43.06
73674;BME280;61975;48.660;10.164;2023-05-21T12:11:39;95202.72;;;25.54;42.67
73674;BME280;61975;48.660;10.164;2023-05-21T12:14:11;95205.56;;;25.54;41.54
73674;BME280;61975;48.660;10.164;2023-05-21T12:16:38;95204.19;;;25.64;41.50
73674;BME280;61975;48.660;10.164;2023-05-21T12:19:04;95203.97;;;25.68;41.84
73674;BME280;61975;48.660;10.164;2023-05-21T12:21:30;95203.00;;;25.71;41.73
73674;BME280;61975;48.660;10.164;2023-05-21T12:23:56;95203.97;;;25.68;42.24
73674;BME280;61975;48.660;10.164;2023-05-21T12:26:23;95203.97;;;25.68;42.02
73674;BME280;61975;48.660;10.164;2023-05-21T12:28:55;95207.63;;;25.68;41.34
73674;BME280;61975;48.660;10.164;2023-05-21T12:31:22;95203.59;;;25.75;40.59
73674;BME280;61975;48.660;10.164;2023-05-21T12:33:50;95209.09;;;25.78;39.97
73674;BME280;61975;48.660;10.164;2023-05-21T12:36:26;95205.13;;;25.90;39.86
73674;BME280;61975;48.660;10.164;2023-05-21T12:38:52;95199.66;;;26.01;40.63
73674;BME280;61975;48.660;10.164;2023-05-21T12:41:20;95195.22;;;26.00;40.13
73674;BME280;61975;48.660;10.164;2023-05-21T12:43:46;95203.50;;;25.98;39.50
73674;BME280;61975;48.660;10.164;2023-05-21T12:46:12;95206.91;;;26.02;38.81
73674;BME280;61975;48.660;10.164;2023-05-21T12:48:53;95213.06;;;26.15;39.34
73674;BME280;61975;48.660;10.164;2023-05-21T12:51:22;95198.59;;;26.19;39.91
73674;BME280;61975;48.660;10.164;2023-05-21T12:53:47;95205.63;;;26.38;39.40
73674;BME280;61975;48.660;10.164;2023-05-21T12:56:14;95205.13;;;26.59;39.66
73674;BME280;61975;48.660;10.164;2023-05-21T12:58:41;95202.78;;;26.78;38.67
73674;BME280;61975;48.660;10.164;2023-05-21T13:01:10;95198.88;;;26.96;38.76
73674;BME280;61975;48.660;10.164;2023-05-21T13:03:40;95200.91;;;27.15;39.01
73674;BME280;61975;48.660;10.164;2023-05-21T13:06:07;95193.59;;;27.34;38.55
73674;BME280;61975;48.660;10.164;2023-05-21T13:08:33;95190.47;;;27.58;39.55
73674;BME280;61975;48.660;10.164;2023-05-21T13:11:03;95195.47;;;27.68;38.44
73674;BME280;61975;48.660;10.164;2023-05-21T13:13:29;95194.25;;;27.75;39.02